Airfield :
LOGIN :

Register | Disclaimer

   EN    FR    IT 

 










Legend :    VFR   Marginal VFR   IFR   Intensive IFR   Very Intensive IFR
Visi :
Ceiling :
>= 8 km
>= 3000ft
5 to 8 km
1000 to 3000 ft
1500m to 5 km
500 to 1000 ft
800 to 1500m
200 to 500 ft
< 800m
< 200 ft
Symbols :   Thunderstorms  Fog  Heavy snow  Heavy precipitations  Wind > 20 kt
SIGMETs :     Misc.  Thunderstorms  Icing  Turbulence  Mountain Waves  Volcanic Ashes






- Airport Elevation : 74 ft
- IATA code : MRS


LFML - Marseille / Marignane

CURRENT METAR :
  • 231030Z AUTO 24004KT 210V280 CAVOK 17/08 Q1021 NOSIG

EXPIRED METARs :
  • 231000Z AUTO VRB03KT CAVOK 17/08 Q1021 NOSIG
  • 230930Z AUTO VRB02KT CAVOK 16/07 Q1021 NOSIG
  • 230900Z AUTO 36004G14KT 270V050 CAVOK 14/07 Q1021 NOSIG
  • 230830Z AUTO 01006KT CAVOK 13/06 Q1021 NOSIG

TAF TAF LFML
Valid from the 23 at 09:00 until the 24 at 15:00 UTC


230800Z 2309/2415 36005KT CAVOK TX22/2314Z TN10/2404Z
ATIS : +33 4 42 31 15 15



MET'MAP, your aeronautical weather chart ! - Copyright ORBIFLY December 2007 - Disclaimer

ORBIFLY MET'MAP TEAM :

Programming & Development : Alexandra Zaïnal
Concept & original design : Baudouin d'Aumeries
Assistance for programming : Marc-Olivier Méhu
Technical & hardware support : Manuel Goepfert

Contact : metmap@orbifly.com




SOURCES & CREDITS :

   NOAA